»·PEaware :: SKW3167 KCLE-KORD

SKW3167 :: KCLE-KORD

FLIGHT INFORMATION

Flight Status: Arrived
Operator:
SkyWest Airlines
More flights by this operator :: More flights under this callsign
Pilot: Adam M. (17337)
Aircraft: CANADAIR CL-600 CRJ-700
(CRJ7)
More flights by this aircraft type
Origin: KCLE Cleveland-Hopkins Intl
United States
Destination: KORD Chicago-O'Hare Intl
United States
More flights between these airports :: More routes between these airports
Route: GTLKE4 DAIFE WATSN WATSN4
File this flight plan on PilotEdge
Remarks: RMK / SIMBRIEF
Altitude:
(Current/Filed)
26,000ft
Speed:
(Current/Filed)
433kts
Departed: 25-Nov-21 09:16 AM
Arrived: 25-Nov-21 10:28 AM
Distance/Time
Traveled:
273nm/1:11
Distance/Time
To Go:
Arrived

Flight Plot

Page will automatically refresh every two minutes.

Flight plan parsing failed; only flown route is shown


Map Options




Map Legend


Flown Route
Filed Route
Departure Airport
Arrival Airport
Navaid (VOR, NDB)
Fix

Horizontal Profiles

Position Reports

Time Latitude Longitude Heading Altitude Ground
Speed
25-Nov-21 08:51 41.410429 -81.839634 120 798ft 0kts
25-Nov-21 08:52 41.410429 -81.839634 120 798ft 0kts
25-Nov-21 08:53 41.410429 -81.839634 120 798ft 0kts
25-Nov-21 08:54 41.410429 -81.839634 120 798ft 0kts
25-Nov-21 08:55 41.410429 -81.839634 120 798ft 0kts
25-Nov-21 08:56 41.410429 -81.839634 120 798ft 0kts
25-Nov-21 08:57 41.410429 -81.839634 120 798ft 0kts
25-Nov-21 08:58 41.410429 -81.839634 120 798ft 0kts
25-Nov-21 08:59 41.410429 -81.839634 120 798ft 0kts
25-Nov-21 09:00 41.410429 -81.839634 120 798ft 0kts
25-Nov-21 09:01 41.410429 -81.839634 120 798ft 0kts
25-Nov-21 09:02 41.410429 -81.839634 120 798ft 0kts
25-Nov-21 09:03 41.410429 -81.839634 120 798ft 0kts
25-Nov-21 09:04 41.410429 -81.839634 120 798ft 0kts
25-Nov-21 09:05 41.410429 -81.839634 120 798ft 0kts
25-Nov-21 09:06 41.410429 -81.839634 120 798ft 0kts
25-Nov-21 09:07 41.410502 -81.839803 119 798ft 2kts
25-Nov-21 09:08 41.410745 -81.840744 65 798ft 2kts
25-Nov-21 09:09 41.410597 -81.841029 50 798ft 0kts
25-Nov-21 09:10 41.410597 -81.841029 50 798ft 0kts
25-Nov-21 09:11 41.410598 -81.841027 50 798ft 0kts
25-Nov-21 09:12 41.410718 -81.840841 44 798ft 6kts
25-Nov-21 09:13 41.412407 -81.843167 59 798ft 12kts
25-Nov-21 09:14 41.415621 -81.839945 308 798ft 0kts
25-Nov-21 09:15 41.413828 -81.844376 228 798ft 63kts
25-Nov-21 09:16 41.394151 -81.894716 266 3547ft 180kts
25-Nov-21 09:17 41.389240 -81.967239 258 6673ft 226kts
25-Nov-21 09:18 41.375166 -82.054081 255 9802ft 250kts
25-Nov-21 09:19 41.358359 -82.148146 252 12410ft 273kts
25-Nov-21 09:20 41.335624 -82.246928 250 14033ft 286kts
25-Nov-21 09:21 41.311057 -82.346575 250 16223ft 287kts
25-Nov-21 09:22 41.287939 -82.446339 256 18469ft 294kts
25-Nov-21 09:23 41.279117 -82.555951 263 20775ft 303kts
25-Nov-21 09:24 41.281166 -82.669833 269 23081ft 314kts
25-Nov-21 09:25 41.290936 -82.787193 270 25391ft 323kts
25-Nov-21 09:26 41.302156 -82.908388 270 26019ft 331kts
25-Nov-21 09:27 41.314285 -83.029552 271 26015ft 330kts
25-Nov-21 09:28 41.327240 -83.150527 271 26016ft 330kts
25-Nov-21 09:29 41.339048 -83.273166 266 26020ft 342kts
25-Nov-21 09:30 41.334944 -83.400374 260 26019ft 347kts
25-Nov-21 09:31 41.325864 -83.528065 260 26017ft 348kts
25-Nov-21 09:32 41.315976 -83.656176 259 26016ft 348kts
25-Nov-21 09:33 41.305854 -83.784106 259 26022ft 347kts
25-Nov-21 09:34 41.295587 -83.911532 259 26022ft 347kts
25-Nov-21 09:35 41.285174 -84.039060 259 26026ft 346kts
25-Nov-21 09:36 41.274682 -84.165741 259 26022ft 345kts
25-Nov-21 09:37 41.264019 -84.292651 258 26015ft 344kts
25-Nov-21 09:38 41.253273 -84.418832 258 26011ft 343kts
25-Nov-21 09:39 41.242392 -84.544945 258 26014ft 343kts
25-Nov-21 09:40 41.237199 -84.672013 264 26021ft 347kts
25-Nov-21 09:41 41.240054 -84.800316 265 26024ft 348kts
25-Nov-21 09:42 41.243949 -84.929265 265 26027ft 348kts
25-Nov-21 09:43 41.247834 -85.057598 265 26028ft 347kts
25-Nov-21 09:44 41.251591 -85.185532 265 26029ft 347kts
25-Nov-21 09:45 41.255127 -85.310577 265 26030ft 346kts
25-Nov-21 09:46 41.258598 -85.438208 265 26027ft 346kts
25-Nov-21 09:47 41.261914 -85.565653 265 26029ft 345kts
25-Nov-21 09:48 41.265084 -85.692791 265 26030ft 344kts
25-Nov-21 09:49 41.268328 -85.820006 265 26028ft 345kts
25-Nov-21 09:50 41.276312 -85.947787 268 26030ft 346kts
25-Nov-21 09:51 41.288496 -86.074891 270 26036ft 347kts
25-Nov-21 09:52 41.303167 -86.201992 270 26046ft 347kts
25-Nov-21 09:53 41.317949 -86.328717 270 26062ft 348kts
25-Nov-21 09:54 41.318830 -86.336305 270 26064ft 348kts
25-Nov-21 09:55 41.321953 -86.363245 270 26067ft 348kts
25-Nov-21 09:56 41.325155 -86.390932 270 26070ft 348kts
25-Nov-21 09:57 41.325155 -86.390932 270 26070ft 348kts
25-Nov-21 09:58 41.325155 -86.390932 270 26070ft 348kts
25-Nov-21 09:59 41.325155 -86.390932 270 26070ft 348kts
25-Nov-21 10:00 41.325155 -86.390932 270 26070ft 348kts
25-Nov-21 10:01 41.325155 -86.390932 270 26070ft 348kts
25-Nov-21 10:02 41.325155 -86.390932 270 26070ft 348kts
25-Nov-21 10:03 41.325155 -86.390932 270 26070ft 348kts
25-Nov-21 10:04 41.325155 -86.390932 270 26070ft 348kts
25-Nov-21 10:05 41.325155 -86.390932 270 26070ft 348kts
25-Nov-21 10:06 41.332788 -86.456313 271 25965ft 352kts
25-Nov-21 10:07 41.404533 -86.561533 312 24236ft 415kts
25-Nov-21 10:08 41.499384 -86.648830 301 22449ft 384kts
25-Nov-21 10:09 41.516277 -86.767326 263 20691ft 323kts
25-Nov-21 10:10 41.549770 -86.885226 289 18923ft 350kts
25-Nov-21 10:11 41.596044 -87.000932 290 17665ft 357kts
25-Nov-21 10:12 41.639526 -87.110358 291 15755ft 317kts
25-Nov-21 10:13 41.646219 -87.219038 257 13872ft 295kts
25-Nov-21 10:14 41.667547 -87.318831 318 11986ft 317kts
25-Nov-21 10:15 41.742649 -87.369537 337 10574ft 290kts
25-Nov-21 10:16 41.817163 -87.334654 22 9468ft 283kts
25-Nov-21 10:17 41.881299 -87.357893 305 8374ft 243kts
25-Nov-21 10:18 41.916576 -87.430476 300 7297ft 225kts
25-Nov-21 10:19 41.946798 -87.497757 298 6473ft 188kts
25-Nov-21 10:20 41.960532 -87.560111 276 5725ft 173kts
25-Nov-21 10:21 41.958931 -87.624207 269 4749ft 159kts
25-Nov-21 10:22 41.957464 -87.681278 274 3749ft 148kts
25-Nov-21 10:23 41.957711 -87.736399 275 3056ft 147kts
25-Nov-21 10:24 41.957793 -87.788092 275 2343ft 135kts
25-Nov-21 10:25 41.957929 -87.838047 275 1638ft 137kts
25-Nov-21 10:26 41.957622 -87.888042 275 924ft 125kts
25-Nov-21 10:27 41.957688 -87.918812 270 675ft 35kts
25-Nov-21 10:28 41.958880 -87.927205 270 675ft 18kts
25-Nov-21 10:29 41.962893 -87.931236 0 675ft 24kts
25-Nov-21 10:30 41.964227 -87.925540 18 675ft 13kts
25-Nov-21 10:31 41.969693 -87.925532 2 675ft 22kts
25-Nov-21 10:32 41.973307 -87.922886 90 675ft 19kts
25-Nov-21 10:33 41.973382 -87.913073 91 675ft 23kts
25-Nov-21 10:34 41.976910 -87.912326 336 675ft 20kts
25-Nov-21 10:35 41.982610 -87.909533 52 675ft 18kts
25-Nov-21 10:36 41.983031 -87.902186 90 675ft 27kts
25-Nov-21 10:37 41.982790 -87.894021 126 675ft 19kts
25-Nov-21 10:38 41.979351 -87.894820 203 675ft 22kts
25-Nov-21 10:39 41.975939 -87.895148 244 675ft 10kts
25-Nov-21 10:40 41.976420 -87.897354 8 675ft 2kts
25-Nov-21 10:41 41.976668 -87.897296 10 675ft 0kts

Navigation Log

Ident Type
Flight plan parsing failed, navigation log unavailable